NCAR-RAP Real-Time Weather Data

Output produced by METARs form (08 May 2021  17:25 UTC)
found at http://weather.rap.ucar.edu/surface/
 
KJXN 081656Z 28007KT 10SM CLR 10/M04 A3010 RMK AO2 SLP198 T01001044
KJXN 081556Z 28008KT 10SM CLR 08/M04 A3011 RMK AO2 SLP200 T00831039
KJXN 081456Z 30010G15KT 10SM CLR 07/M04 A3011 RMK AO2 SLP200 T00721039 51010
KJXN 081356Z 32007G15KT 10SM CLR 06/M03 A3010 RMK AO2 SLP198 T00611033
KJXN 081256Z 30007KT 10SM CLR 04/M02 A3009 RMK AO2 SLP196 T00441022
KJXN 081156Z 30007KT 10SM CLR 02/M02 A3007 RMK AO2 SLP191 T00221017 10033 20006 53018
KJXN 081056Z 29005KT 10SM CLR 01/M02 A3006 RMK AO2 SLP185 T00111017
KJXN 080956Z AUTO 29005KT 10SM CLR 01/M02 A3003 RMK AO2 SLP176 T00111017
KJXN 080856Z AUTO 29007KT 10SM CLR 02/M02 A3002 RMK AO2 SLP170 T00171017 51005
KJXN 080756Z AUTO 30007KT 10SM CLR 02/M02 A3002 RMK AO2 SLP170 T00221017
KJXN 080656Z AUTO 30005KT 10SM CLR 03/M02 A3001 RMK AO2 SLP167 T00281017
KJXN 080556Z AUTO 32003KT 10SM CLR 03/M01 A3001 RMK AO2 SLP164 T00331011 10100 20033 52005
KJXN 080456Z AUTO 30007KT 10SM FEW032 04/M01 A3000 RMK AO2 SLP165 T00441011 401440017
KJXN 080356Z AUTO 31007KT 10SM BKN033 06/M01 A2999 RMK AO2 SLP161 T00561011
KJXN 080256Z AUTO 33008G16KT 10SM SCT030 06/M01 A2999 RMK AO2 SLP160 T00611006 53025
KJXN 080156Z AUTO 33009G18KT 10SM FEW042 FEW050 08/01 A2996 RMK AO2 SLP150 T00780006